Bridgewater, MA

4:16 AM EDT on September 26, 2016 (GMT -0400)
NEOS-Norton Earth Observing Station -- Renwick Drive -- | | Change Station
Active Advisory: Frost Advisory

Elev 100 ft 41.99 °N, 71.17 °W | Updated 4 minutes ago

Partly Cloudy
Partly Cloudy
37.8 °F
Feels Like 37.8 °F
N
0.0
Wind Variable Wind from NE
Gusts 0.0 mph

Today
High -- | Low -- °F
--% Chance of Precip.
Yesterday
High -- | Low -- °F
Precip. -- in
Pressure 30.19 in
Visibility 2.0 miles
Clouds Few 100 ft
Dew Point 36.0 °F
Humidity 91%
Rainfall 0.00 in
Snow Depth Not available.
6:36 AM 6:33 PM
Waning Crescent, 21% visible
SPECI KTAN 260759Z AUTO 00000KT 2SM BR FEW001 01/00 A3019 RMK AO2 T00060000
Pressure 30.19 in
Visibility 2.0 miles
Clouds Few 100 ft
Dew Point 36.0 °F
Humidity 91%
Rainfall 0.00 in
Snow Depth Not available.
6:36 AM 6:33 PM
Waning Crescent, 21% visible
SPECI KTAN 260759Z AUTO 00000KT 2SM BR FEW001 01/00 A3019 RMK AO2 T00060000

10-Day Weather Forecast

Almanac

Astronomy

Sep. 26, 2016 Rise Set
Actual Time
Civil Twilight
Nautical Twilight
Astronomical Twilight
Moon
Length of Visible Light
Length of Day
Tomorrow will be .
, % of the Moon is Illuminated

Today's Extremes

State Highs State Lows

Community

WunderPhotos

Upload Photos

1,941,853 photos uploaded!

WunderBlog® & News

Nearby

Air Quality

  Air Quality AQ Index Pollutant
Not available.

Snow Depth

Station Depth Elevation

Earthquake Activity

City Distance Mag. Time & Date
Minimum magnitude displayed is 2.5.

Coastal Water Temperatures

Place Temperature

Stations

Nearby Weather Stations

Station Location Temp. Windchill Dew Point Humidity Wind Precip. Elev Updated Type
                   

Watches & Warnings

Frost Advisory
Issued: 4:05 AM EDT Sep. 26, 2016 – National Weather Service

... Frost advisory remains in effect until 8 am EDT this morning...

* location... Franklin... northern Worcester... Hampshire and
Hampden counties in northern and western Massachusetts as well
as northern Bristol and western Plymouth counties in interior
southeast Massachusetts.

* Temperatures... in the low to mid 30s.

* Timing... through 8 am.

* Impacts... sensitive outdoor plants may be impacted if not
covered or brought inside.

Precautionary/preparedness actions...

A frost advisory means that widespread frost is expected.
Sensitive outdoor plants may be killed if left uncovered.



For the latest updates... please visit our webpage at
www.Weather.Gov/Boston

You can follow US on facebook at
www.Facebook.Com/nwsboston